Time;durP1;ratioP1;P1;durP2;ratioP2;P2;SDS_P1;SDS_P2;PMS_P1;PMS_P2;Temp;Humidity;BMP_temperature;BMP_pressure;BME280_temperature;BME280_humidity;BME280_pressure;Samples;Min_cycle;Max_cycle;Signal;HPM_P1;HPM_P2
2022/10/02 00:01:27;;;;;;;3.88;1.20;;;;;;;13.29;79.69;96949.97;5015518;28;20054;-77
2022/10/02 00:03:58;;;;;;;4.35;1.02;;;;;;;13.30;79.39;96946.38;5016759;28;20136;-76
2022/10/02 00:06:38;;;;;;;7.78;1.23;;;;;;;13.30;79.48;96956.84;5017414;28;20058;-76
2022/10/02 00:09:11;;;;;;;4.43;1.40;;;;;;;13.30;79.60;96956.84;5017470;28;20112;-75
2022/10/02 00:11:43;;;;;;;2.22;1.20;;;;;;;13.31;79.50;96967.13;5016899;28;20049;-75
2022/10/02 00:14:15;;;;;;;4.28;1.10;;;;;;;13.31;79.52;96968.94;5018552;28;20261;-76
2022/10/02 00:16:47;;;;;;;2.38;1.15;;;;;;;13.31;79.83;96963.69;5019781;28;20112;-76
2022/10/02 00:19:18;;;;;;;6.28;1.35;;;;;;;13.29;79.56;96961.25;5018541;28;20048;-79
2022/10/02 00:21:59;;;;;;;3.78;1.15;;;;;;;13.28;79.82;96949.16;5019092;28;20053;-76
2022/10/02 00:24:32;;;;;;;3.08;1.27;;;;;;;13.29;79.59;96952.59;5019790;28;20112;-76
2022/10/02 00:27:05;;;;;;;3.40;1.58;;;;;;;13.26;79.62;96952.97;5019502;28;20085;-77
2022/10/02 00:29:42;;;;;;;3.30;1.33;;;;;;;13.24;79.87;96954.94;5019419;28;20046;-76
2022/10/02 00:32:23;;;;;;;3.33;1.30;;;;;;;13.23;79.97;96955.94;5018207;28;20053;-76
2022/10/02 00:35:34;;;;;;;5.10;1.50;;;;;;;13.24;79.96;96958.38;5019826;28;20081;-76
2022/10/02 00:38:11;;;;;;;2.50;1.02;;;;;;;13.23;79.82;96962.00;5018802;28;20049;-77
2022/10/02 00:41:04;;;;;;;6.15;1.23;;;;;;;13.24;80.07;96965.44;5016793;28;20050;-75
2022/10/02 00:43:43;;;;;;;4.45;1.42;;;;;;;13.24;79.82;96970.69;5018584;28;20386;-76
2022/10/02 00:46:31;;;;;;;3.25;1.08;;;;;;;13.25;79.95;96974.91;5017979;28;20112;-78
2022/10/02 00:49:08;;;;;;;2.97;0.95;;;;;;;13.26;79.80;96976.53;5018018;28;20081;-76
2022/10/02 00:51:47;;;;;;;4.22;1.05;;;;;;;13.26;79.30;96971.28;5017439;28;20054;-75
2022/10/02 00:54:30;;;;;;;3.20;0.95;;;;;;;13.27;79.67;96983.38;5017531;28;20054;-77
2022/10/02 00:57:09;;;;;;;6.10;1.35;;;;;;;13.28;79.73;96992.88;5017331;28;20514;-78
2022/10/02 00:59:53;;;;;;;2.33;1.20;;;;;;;13.28;79.44;97000.75;5016668;28;20121;-76
2022/10/02 01:02:44;;;;;;;3.63;1.08;;;;;;;13.29;79.71;97005.00;5015496;28;20050;-76
2022/10/02 01:05:12;;;;;;;3.90;1.00;;;;;;;13.28;79.42;97000.75;5017365;28;20050;-76
2022/10/02 01:07:43;;;;;;;5.13;1.70;;;;;;;13.27;79.65;96994.69;5016288;28;20053;-77
2022/10/02 01:10:13;;;;;;;5.20;0.88;;;;;;;13.27;79.54;96988.63;5016629;28;20352;-78
2022/10/02 01:12:42;;;;;;;5.00;1.00;;;;;;;13.26;79.35;96979.97;5018698;28;20053;-77
2022/10/02 01:15:13;;;;;;;3.35;1.02;;;;;;;13.27;79.57;96984.22;5019289;28;20475;-79
2022/10/02 01:17:42;;;;;;;2.10;1.00;;;;;;;13.28;79.54;96990.25;5017938;28;20049;-78
2022/10/02 01:20:15;;;;;;;5.65;1.35;;;;;;;13.28;79.69;96980.63;5017381;28;20046;-79
2022/10/02 01:22:52;;;;;;;2.90;1.02;;;;;;;13.28;79.89;96979.78;5017888;28;20058;-77
2022/10/02 01:25:21;;;;;;;4.78;1.00;;;;;;;13.27;79.93;96986.84;5017938;28;20493;-77
2022/10/02 01:27:50;;;;;;;4.00;0.98;;;;;;;13.27;79.82;96986.84;5017176;28;20500;-76
2022/10/02 01:30:20;;;;;;;3.38;0.93;;;;;;;13.28;80.03;96974.53;5015893;28;20531;-77
2022/10/02 01:32:51;;;;;;;4.70;2.00;;;;;;;13.28;80.10;96979.78;5016604;28;20049;-77
2022/10/02 01:35:21;;;;;;;2.35;1.23;;;;;;;13.28;80.28;96983.22;5016757;28;20049;-78
2022/10/02 01:37:50;;;;;;;6.50;1.60;;;;;;;13.28;80.11;96983.22;5017017;28;20049;-77
2022/10/02 01:40:27;;;;;;;2.58;1.27;;;;;;;13.29;80.62;96981.41;5015571;28;20196;-77
2022/10/02 01:42:57;;;;;;;5.43;1.52;;;;;;;13.28;80.36;96985.84;5015445;28;20504;-76
2022/10/02 01:45:36;;;;;;;3.58;1.55;;;;;;;13.28;80.69;96992.88;5015434;28;20109;-76
2022/10/02 01:48:13;;;;;;;4.13;1.20;;;;;;;13.28;80.94;96990.25;5015532;28;20120;-77
2022/10/02 01:50:53;;;;;;;2.45;1.27;;;;;;;13.27;80.71;96991.25;5014359;28;20050;-77
2022/10/02 01:53:28;;;;;;;4.00;1.70;;;;;;;13.26;80.90;96987.00;5018026;28;20108;-76
2022/10/02 01:56:06;;;;;;;5.07;1.75;;;;;;;13.24;81.02;96976.72;5018158;28;20062;-77
2022/10/02 01:58:44;;;;;;;4.05;1.10;;;;;;;13.24;81.00;96984.56;5018433;28;20117;-77
2022/10/02 02:01:22;;;;;;;2.97;1.48;;;;;;;13.24;81.20;96978.53;5017929;28;20050;-77
2022/10/02 02:04:00;;;;;;;2.10;0.77;;;;;;;13.24;81.07;96999.50;5019375;28;20054;-79
2022/10/02 02:06:32;;;;;;;2.05;0.90;;;;;;;13.23;81.12;96995.22;5018377;28;20065;-77
2022/10/02 02:09:08;;;;;;;0.73;0.60;;;;;;;13.22;81.11;96965.63;5018604;28;20053;-77
2022/10/02 02:11:44;;;;;;;3.85;1.40;;;;;;;13.20;81.24;96983.31;5021369;28;20042;-76
2022/10/02 02:14:16;;;;;;;1.30;0.70;;;;;;;13.21;81.17;96995.44;5022240;28;20054;-76
2022/10/02 02:16:45;;;;;;;3.30;1.10;;;;;;;13.20;81.08;97002.47;5021528;28;20108;-78
2022/10/02 02:19:19;;;;;;;5.00;0.93;;;;;;;13.21;81.36;96995.44;5021444;28;20049;-77
2022/10/02 02:21:50;;;;;;;2.03;0.82;;;;;;;13.22;81.19;96991.81;5020197;28;20467;-77
2022/10/02 02:24:23;;;;;;;4.17;1.07;;;;;;;13.22;81.25;96991.81;5020150;28;20121;-77
2022/10/02 02:26:56;;;;;;;3.17;1.35;;;;;;;13.23;81.56;97000.47;5019977;28;20267;-77
2022/10/02 02:29:26;;;;;;;3.90;1.20;;;;;;;13.24;81.21;96999.50;5019864;28;20120;-78
2022/10/02 02:31:56;;;;;;;5.20;1.30;;;;;;;13.24;81.28;96995.06;5018930;28;20054;-76
2022/10/02 02:34:30;;;;;;;9.85;1.20;;;;;;;13.23;81.53;96993.44;5020012;28;20479;-76
2022/10/02 02:37:04;;;;;;;2.78;1.35;;;;;;;13.24;81.65;97016.00;5019299;28;20081;-78
2022/10/02 03:44:23;;;;;;;3.45;1.02;;;;;;;13.29;81.46;96995.31;5514813;23;20041;-85
2022/10/02 03:46:57;;;;;;;5.38;1.10;;;;;;;13.29;81.07;96997.13;5059128;28;20038;-85
2022/10/02 05:46:43;;;;;;;6.00;2.50;;;;;;;13.18;81.62;97014.97;5541572;23;20097;-80
2022/10/02 05:49:17;;;;;;;7.90;1.40;;;;;;;13.18;81.31;97020.22;5048207;28;20079;-80
2022/10/02 06:21:48;;;;;;;6.97;1.75;;;;;;;13.26;81.64;97050.69;5711394;23;20056;-80
2022/10/02 06:24:30;;;;;;;4.93;1.10;;;;;;;13.26;80.63;97042.84;5012723;28;20088;-80
2022/10/02 06:27:02;;;;;;;7.85;1.40;;;;;;;13.28;80.97;97050.50;5015537;28;20058;-73
2022/10/02 07:37:02;;;;;;;8.38;1.55;;;;;;;13.60;80.94;97004.66;3148214;23;20077;-79
2022/10/02 07:40:00;;;;;;;3.78;1.40;;;;;;;13.60;80.91;97002.84;5041441;28;20053;-79
2022/10/02 07:45:43;;;;;;;4.00;1.70;;;;;;;13.58;81.43;97002.22;5229805;23;20042;-80
2022/10/02 08:10:05;;;;;;;2.78;1.10;;;;;;;13.46;81.60;96988.00;5529668;23;19927;-76
2022/10/02 08:12:40;;;;;;;1.90;1.35;;;;;;;13.46;81.71;96987.19;5029853;28;20465;-76
2022/10/02 08:15:14;;;;;;;2.13;1.30;;;;;;;13.44;82.24;96984.75;5033243;28;20119;-76
2022/10/02 08:17:48;;;;;;;2.35;1.52;;;;;;;13.44;82.08;96984.75;5033617;28;20049;-76
2022/10/02 08:20:24;;;;;;;2.97;1.85;;;;;;;13.43;82.35;96971.88;5034572;28;20053;-79
2022/10/02 08:23:00;;;;;;;3.25;1.42;;;;;;;13.42;82.49;96978.91;5039221;28;20045;-79
2022/10/02 08:25:36;;;;;;;3.97;1.50;;;;;;;13.42;82.30;96971.03;5019549;28;20197;-78
2022/10/02 08:28:10;;;;;;;1.77;1.02;;;;;;;13.42;82.44;96971.03;5033188;28;20567;-78
2022/10/02 08:30:38;;;;;;;2.40;1.42;;;;;;;13.41;82.42;96972.06;5045220;28;20571;-76
2022/10/02 08:33:13;;;;;;;3.70;1.45;;;;;;;13.41;82.81;96987.78;5052707;28;20053;-76
2022/10/02 08:53:32;;;;;;;4.38;2.30;;;;;;;13.46;83.11;96951.31;5027592;28;20056;-81
2022/10/02 08:56:12;;;;;;;4.32;3.13;;;;;;;13.45;83.04;96964.63;5044370;28;20060;-80
2022/10/02 08:59:21;;;;;;;4.07;3.10;;;;;;;13.42;83.32;96950.06;5040566;28;20049;-82
2022/10/02 09:02:26;;;;;;;4.55;3.75;;;;;;;13.39;83.29;96947.84;5132499;23;20064;-83
2022/10/02 09:09:19;;;;;;;1.95;1.65;;;;;;;13.39;83.63;96947.84;5265990;23;20054;-81
2022/10/02 09:12:24;;;;;;;1.70;0.95;;;;;;;13.38;83.49;96948.84;5041413;28;20494;-81
2022/10/02 09:14:58;;;;;;;1.60;1.20;;;;;;;13.35;83.14;96933.50;5044012;28;20053;-81
2022/10/02 09:18:04;;;;;;;3.28;2.80;;;;;;;13.36;84.23;96940.38;5045300;28;20049;-81
2022/10/02 09:20:48;;;;;;;3.40;2.50;;;;;;;13.37;83.93;96940.16;5036258;28;20067;-81
2022/10/02 09:24:01;;;;;;;3.00;2.05;;;;;;;13.38;83.84;96928.69;5041230;28;20052;-81
2022/10/02 09:38:20;;;;;;;2.25;1.90;;;;;;;13.47;83.25;96905.78;5032791;28;20130;-81
2022/10/02 09:41:30;;;;;;;2.70;1.92;;;;;;;13.48;83.56;96896.91;5012763;28;20061;-81
2022/10/02 09:44:57;;;;;;;4.13;2.72;;;;;;;13.52;83.67;96892.91;4977687;28;20052;-80
2022/10/02 09:48:17;;;;;;;2.47;2.25;;;;;;;13.62;83.75;96883.88;5037094;28;20069;-81
2022/10/02 09:57:59;;;;;;;2.85;2.05;;;;;;;13.74;83.92;96905.91;5031865;28;20041;-81
2022/10/02 10:01:01;;;;;;;1.60;1.50;;;;;;;13.72;83.89;96908.72;5030854;28;20060;-81
2022/10/02 10:04:07;;;;;;;2.00;1.80;;;;;;;13.68;83.93;96906.69;5018419;28;20145;-82
2022/10/02 10:06:57;;;;;;;2.65;1.75;;;;;;;13.63;84.00;96896.00;5017377;28;20057;-82
2022/10/02 10:13:39;;;;;;;1.58;1.48;;;;;;;13.64;84.54;96908.88;5078696;23;20086;-82
2022/10/02 10:16:48;;;;;;;2.08;1.50;;;;;;;13.67;84.43;96905.09;5024277;28;20053;-81
2022/10/02 10:20:07;;;;;;;1.40;1.30;;;;;;;13.67;84.54;96916.38;5024991;28;20050;-82
2022/10/02 10:23:02;;;;;;;;;;;;;;;13.70;84.32;96918.59;4999356;28;20050;-82
2022/10/02 10:25:50;;;;;;;1.40;1.15;;;;;;;13.67;83.84;96910.31;4997796;28;20311;-82
2022/10/02 10:32:45;;;;;;;1.17;1.08;;;;;;;13.66;84.30;96921.81;4987216;28;20488;-83
2022/10/02 10:38:30;;;;;;;1.88;1.30;;;;;;;13.67;84.13;96926.06;5000087;28;20042;-83
2022/10/02 10:46:17;;;;;;;1.95;1.40;;;;;;;13.73;84.67;96931.34;5017098;28;20102;-81
2022/10/02 10:49:34;;;;;;;1.10;0.93;;;;;;;13.75;84.24;96923.25;5010636;28;20050;-83
2022/10/02 10:55:51;;;;;;;1.10;0.85;;;;;;;13.80;84.60;96945.28;4999721;28;20124;-82
2022/10/02 11:10:06;;;;;;;2.22;0.88;;;;;;;13.91;84.20;96928.19;5007754;28;20546;-84
2022/10/02 11:16:59;;;;;;;0.80;0.63;;;;;;;13.95;83.24;96916.31;5015016;28;20082;-84
2022/10/02 11:20:13;;;;;;;2.22;0.80;;;;;;;13.99;83.74;96911.47;5015992;28;20060;-84
2022/10/02 11:23:30;;;;;;;0.63;0.63;;;;;;;14.01;83.01;96912.09;4980923;28;20101;-82
2022/10/02 11:26:36;;;;;;;2.03;1.45;;;;;;;14.04;82.92;96924.00;5019481;28;20050;-82
2022/10/02 11:37:50;;;;;;;0.63;0.60;;;;;;;14.11;83.38;96946.63;5066962;28;20135;-82
2022/10/02 11:40:51;;;;;;;0.82;0.82;;;;;;;14.13;83.01;96930.72;5063794;28;20533;-82
2022/10/02 11:43:53;;;;;;;0.70;0.70;;;;;;;14.14;82.97;96927.06;5041863;28;20048;-82
2022/10/02 11:46:38;;;;;;;0.70;0.70;;;;;;;14.17;82.82;96931.94;5037264;28;20060;-81
2022/10/02 11:49:50;;;;;;;1.30;1.20;;;;;;;14.19;83.09;96941.22;5035615;28;20104;-82
2022/10/02 11:52:54;;;;;;;1.00;0.90;;;;;;;14.18;82.62;96949.28;5020566;28;20046;-83
2022/10/02 11:55:41;;;;;;;0.95;0.95;;;;;;;14.18;82.36;96938.78;5026145;28;20049;-81
2022/10/02 11:58:56;;;;;;;0.73;0.73;;;;;;;14.21;83.10;96933.97;5041200;28;20406;-82
2022/10/02 12:01:48;;;;;;;0.68;0.68;;;;;;;14.25;82.55;96937.00;5042205;28;20057;-83
2022/10/02 12:04:40;;;;;;;1.02;0.70;;;;;;;14.24;82.41;96938.03;5038827;28;20107;-81
2022/10/02 12:07:36;;;;;;;3.08;0.90;;;;;;;14.26;82.71;96940.47;5045226;28;20073;-81
2022/10/02 12:10:23;;;;;;;2.50;1.30;;;;;;;14.26;82.68;96946.50;5035470;28;20053;-81
2022/10/02 12:13:14;;;;;;;0.85;0.85;;;;;;;14.29;82.58;96938.22;5040813;28;20041;-82
2022/10/02 12:15:55;;;;;;;1.25;1.15;;;;;;;14.32;82.45;96934.41;5044611;28;20113;-81
2022/10/02 12:18:37;;;;;;;0.85;0.85;;;;;;;14.35;82.51;96929.56;5041412;28;20080;-82
2022/10/02 12:27:29;;;;;;;1.05;0.40;;;;;;;14.37;81.60;96930.19;5034435;28;20061;-81
2022/10/02 12:30:09;;;;;;;0.63;0.40;;;;;;;14.36;80.86;96922.50;5035002;28;20053;-81
2022/10/02 12:33:09;;;;;;;1.55;0.77;;;;;;;14.39;81.75;96935.25;5036603;28;20049;-81
2022/10/02 12:35:56;;;;;;;1.88;0.60;;;;;;;14.41;81.73;96936.66;5052097;28;20461;-81
2022/10/02 12:38:39;;;;;;;1.85;0.40;;;;;;;14.45;81.89;96925.75;5035882;28;20057;-82
2022/10/02 12:41:21;;;;;;;0.20;0.10;;;;;;;14.49;81.04;96940.09;5034989;28;20140;-81
2022/10/02 12:44:40;;;;;;;0.45;0.45;;;;;;;14.50;81.29;96934.66;5044281;28;20049;-81
2022/10/02 12:47:30;;;;;;;0.35;0.17;;;;;;;14.48;80.99;96931.44;4975711;28;20055;-81
2022/10/02 12:51:00;;;;;;;0.38;0.30;;;;;;;14.50;80.87;96923.38;5054546;28;20060;-81
2022/10/02 12:54:06;;;;;;;0.65;0.40;;;;;;;14.54;81.67;96924.56;4973478;28;20054;-80
2022/10/02 12:57:02;;;;;;;0.03;0.03;;;;;;;14.57;80.70;96911.88;4935111;29;20055;-81
2022/10/02 12:59:42;;;;;;;0.25;0.10;;;;;;;14.58;80.06;96917.94;5012807;28;20407;-81
2022/10/02 13:02:58;;;;;;;3.00;1.08;;;;;;;14.59;80.81;96902.00;5021465;28;20050;-81
2022/10/02 13:05:46;;;;;;;0.28;0.28;;;;;;;14.62;80.29;96903.41;5046760;28;20079;-81
2022/10/02 13:08:24;;;;;;;1.38;0.77;;;;;;;14.62;80.89;96901.59;5047575;28;20057;-81
2022/10/02 13:11:06;;;;;;;0.13;0.13;;;;;;;14.65;80.53;96896.94;5043611;28;20049;-81
2022/10/02 13:13:53;;;;;;;0.45;0.20;;;;;;;14.66;80.15;96898.59;5036909;28;20049;-81
2022/10/02 13:16:30;;;;;;;0.88;0.40;;;;;;;14.67;80.84;96910.69;5035030;28;20057;-81
2022/10/02 13:19:14;;;;;;;0.82;0.75;;;;;;;14.66;80.87;96923.00;5014680;28;20050;-81
2022/10/02 13:21:53;;;;;;;0.40;0.40;;;;;;;14.63;80.41;96931.31;5016648;28;20483;-80
2022/10/02 13:24:39;;;;;;;0.63;0.50;;;;;;;14.61;80.47;96943.81;5056697;28;20131;-81
2022/10/02 13:27:22;;;;;;;1.60;0.40;;;;;;;14.59;80.53;96948.44;5046786;28;20060;-81
2022/10/02 13:30:10;;;;;;;1.63;0.47;;;;;;;14.55;81.17;96952.47;5039673;28;20053;-81
2022/10/02 13:33:07;;;;;;;0.45;0.10;;;;;;;14.53;81.46;96959.72;5053552;28;20045;-81
2022/10/02 13:35:50;;;;;;;0.63;0.20;;;;;;;14.52;81.45;96964.16;5057313;28;20054;-81
2022/10/02 13:38:38;;;;;;;1.40;0.30;;;;;;;14.51;81.16;96944.16;5070197;28;20045;-81
2022/10/02 13:41:17;;;;;;;0.60;0.45;;;;;;;14.50;80.83;96926.00;5054856;28;20049;-80
2022/10/02 13:44:21;;;;;;;1.95;0.80;;;;;;;14.47;80.85;96929.00;5049598;28;20116;-82
2022/10/02 13:47:13;;;;;;;0.80;0.40;;;;;;;14.42;80.21;96940.88;5042604;28;20119;-82
2022/10/02 13:50:23;;;;;;;0.60;0.50;;;;;;;14.40;80.94;96931.59;5058487;28;20059;-81
2022/10/02 13:53:26;;;;;;;1.30;0.40;;;;;;;14.39;80.83;96937.88;5022410;28;20046;-81
2022/10/02 13:56:07;;;;;;;0.32;0.32;;;;;;;14.35;81.19;96953.19;5021461;28;20121;-81
2022/10/02 13:59:01;;;;;;;0.60;0.43;;;;;;;14.33;81.07;96951.78;5025031;28;20081;-82
2022/10/02 14:01:57;;;;;;;2.47;0.65;;;;;;;14.30;81.53;96947.72;5028364;28;20058;-81
2022/10/02 14:04:56;;;;;;;3.80;0.82;;;;;;;14.29;81.62;96951.34;5045760;28;20037;-81
2022/10/02 14:10:53;;;;;;;1.20;0.93;;;;;;;14.28;81.51;96943.66;5058313;28;20473;-80
2022/10/02 14:13:41;;;;;;;0.45;0.45;;;;;;;14.28;81.08;96939.25;5056161;28;20060;-81
2022/10/02 14:16:30;;;;;;;1.25;0.60;;;;;;;14.29;81.46;96940.06;5053044;28;20099;-80
2022/10/02 14:19:27;;;;;;;0.30;0.25;;;;;;;14.29;81.65;96927.72;5057033;28;20104;-80
2022/10/02 14:22:10;;;;;;;0.98;0.60;;;;;;;14.34;81.78;96917.47;5046607;28;20079;-81
2022/10/02 14:25:03;;;;;;;0.65;0.40;;;;;;;14.40;81.58;96931.59;5063182;28;20048;-80
2022/10/02 14:28:05;;;;;;;0.70;0.40;;;;;;;14.43;81.29;96941.72;5038578;28;20064;-80
2022/10/02 14:30:53;;;;;;;0.85;0.50;;;;;;;14.43;81.62;96934.66;5020150;28;20077;-80
2022/10/02 14:33:36;;;;;;;0.45;0.45;;;;;;;14.43;81.19;96939.91;5021345;28;20050;-81
2022/10/02 14:36:17;;;;;;;0.60;0.55;;;;;;;14.44;80.51;96927.59;5031562;28;20072;-80
2022/10/02 14:39:01;;;;;;;0.55;0.45;;;;;;;14.43;80.39;96926.78;5048427;28;20049;-80
2022/10/02 14:41:45;;;;;;;1.67;1.15;;;;;;;14.46;80.86;96922.13;5044470;28;20046;-80
2022/10/02 14:44:38;;;;;;;1.02;0.40;;;;;;;14.48;80.26;96933.25;5018718;28;20058;-80
2022/10/02 14:47:27;;;;;;;0.85;0.30;;;;;;;14.45;79.85;96938.88;5034688;28;20087;-80
2022/10/02 14:50:13;;;;;;;1.33;0.60;;;;;;;14.41;80.34;96934.03;5038319;28;20050;-80
2022/10/02 14:53:17;;;;;;;0.47;0.38;;;;;;;14.39;80.87;96930.81;5057258;28;20081;-81
2022/10/02 15:00:05;;;;;;;1.60;0.70;;;;;;;14.32;80.14;96922.09;5052468;28;20049;-81
2022/10/02 15:03:25;;;;;;;3.70;1.17;;;;;;;14.31;81.76;96912.59;5042667;23;20056;-79
2022/10/02 15:06:09;;;;;;;0.68;0.55;;;;;;;14.27;81.31;96921.06;5019366;28;20427;-78
2022/10/02 15:08:45;;;;;;;0.88;0.63;;;;;;;14.23;81.91;96910.16;5032170;28;20069;-78
2022/10/02 15:11:24;;;;;;;0.40;0.40;;;;;;;14.21;81.28;96912.16;5032607;28;20115;-79
2022/10/02 15:13:57;;;;;;;2.22;0.80;;;;;;;14.21;81.45;96917.41;5033857;28;20052;-79
2022/10/02 15:19:24;;;;;;;1.52;0.40;;;;;;;14.18;81.44;96899.44;5022353;28;20042;-78
2022/10/02 15:21:57;;;;;;;0.82;0.50;;;;;;;14.18;81.34;96896.81;5014367;28;20321;-79
2022/10/02 15:24:32;;;;;;;0.57;0.57;;;;;;;14.18;82.46;96907.31;5014283;28;20050;-79
2022/10/02 15:27:15;;;;;;;0.40;0.40;;;;;;;14.18;82.14;96907.31;5014210;28;20495;-79
2022/10/02 15:29:58;;;;;;;0.70;0.38;;;;;;;14.17;81.97;96913.59;5013798;28;20049;-79
2022/10/02 15:32:47;;;;;;;1.75;0.20;;;;;;;14.16;81.76;96919.81;5014197;28;20057;-79
2022/10/02 15:35:27;;;;;;;0.32;0.32;;;;;;;14.15;81.28;96926.88;5016519;28;20463;-79
2022/10/02 15:38:13;;;;;;;0.68;0.45;;;;;;;14.12;81.41;96918.59;5033439;28;20045;-78
2022/10/02 15:40:53;;;;;;;0.38;0.38;;;;;;;14.08;80.97;96917.34;5033965;28;20056;-79
2022/10/02 15:43:38;;;;;;;2.38;1.00;;;;;;;14.07;82.44;96918.38;5033518;28;20061;-79
2022/10/02 15:46:13;;;;;;;0.85;0.50;;;;;;;14.07;82.30;96932.28;5033547;28;20491;-79
2022/10/02 15:48:58;;;;;;;1.63;0.57;;;;;;;14.06;82.45;96948.22;5033080;28;20557;-78
2022/10/02 15:51:44;;;;;;;0.85;0.40;;;;;;;14.01;82.17;96970.63;5033421;28;20052;-79
2022/10/02 15:54:23;;;;;;;0.65;0.40;;;;;;;13.98;81.98;96975.44;5033513;28;20073;-79
2022/10/02 15:57:21;;;;;;;0.45;0.45;;;;;;;13.94;82.09;96975.00;5033423;28;20418;-79
2022/10/02 16:00:02;;;;;;;1.42;0.30;;;;;;;13.91;81.94;96970.16;5027298;28;20053;-79
2022/10/02 16:02:56;;;;;;;0.80;0.30;;;;;;;13.89;82.32;96963.50;4993680;28;20178;-79
2022/10/02 16:05:43;;;;;;;0.82;0.47;;;;;;;13.85;83.45;96963.06;4991229;28;20085;-79
2022/10/02 16:08:46;;;;;;;0.60;0.60;;;;;;;13.83;83.62;96983.41;5004515;28;20056;-80
2022/10/02 16:11:28;;;;;;;0.43;0.40;;;;;;;13.78;82.90;96968.25;5016313;28;20057;-80
2022/10/02 16:14:06;;;;;;;1.35;1.02;;;;;;;13.76;83.61;96979.94;5007879;28;20050;-79
2022/10/02 16:17:05;;;;;;;3.90;0.93;;;;;;;13.72;83.79;96992.63;4993867;28;20046;-79
2022/10/02 16:19:50;;;;;;;0.32;0.32;;;;;;;13.69;83.00;96998.25;5000502;28;20052;-80
2022/10/02 16:22:35;;;;;;;1.00;0.70;;;;;;;13.67;83.37;97012.56;5016449;28;20046;-79
2022/10/02 16:25:24;;;;;;;0.88;0.57;;;;;;;13.66;84.18;97009.13;5012410;28;20046;-80
2022/10/02 16:27:56;;;;;;;1.10;0.85;;;;;;;13.66;83.78;97016.16;5013857;28;20060;-79
2022/10/02 16:30:32;;;;;;;0.60;0.57;;;;;;;13.63;83.77;97029.66;5003074;28;20415;-79
2022/10/02 16:33:10;;;;;;;2.10;0.32;;;;;;;13.58;83.19;97038.91;4996108;28;20062;-79
2022/10/02 16:36:07;;;;;;;0.65;0.38;;;;;;;13.54;83.06;97034.25;5013021;28;20064;-80
2022/10/02 16:38:47;;;;;;;0.60;0.50;;;;;;;13.48;83.28;97027.94;5004618;28;20064;-79
2022/10/02 16:41:35;;;;;;;0.63;0.55;;;;;;;13.47;83.69;97031.56;5008926;28;20049;-79
2022/10/02 16:44:23;;;;;;;3.45;1.02;;;;;;;13.46;83.63;97037.00;5002188;28;20401;-79
2022/10/02 16:46:54;;;;;;;3.20;1.52;;;;;;;13.44;83.91;97037.16;5000150;28;20190;-80
2022/10/02 16:49:30;;;;;;;1.30;0.97;;;;;;;13.44;84.24;97037.16;5012604;28;20483;-80
2022/10/02 16:52:06;;;;;;;4.50;1.48;;;;;;;13.45;84.84;97041.44;5004862;28;20056;-79
2022/10/02 16:54:45;;;;;;;2.33;1.23;;;;;;;13.44;84.91;97031.94;5001053;28;20050;-79
2022/10/02 16:57:24;;;;;;;0.98;0.40;;;;;;;13.45;84.59;97036.19;4993096;28;20070;-78
2022/10/02 16:59:59;;;;;;;0.63;0.40;;;;;;;13.44;83.76;97031.94;4999754;28;20049;-79
2022/10/02 17:02:42;;;;;;;2.40;1.15;;;;;;;13.45;84.84;97030.94;5012268;28;20057;-79
2022/10/02 17:05:23;;;;;;;0.77;0.70;;;;;;;13.42;84.12;97036.53;5011793;28;20046;-79
2022/10/02 17:07:58;;;;;;;2.20;1.50;;;;;;;13.40;84.26;97046.41;5010685;28;20050;-79
2022/10/02 17:10:37;;;;;;;1.35;1.17;;;;;;;13.38;84.08;97053.63;5022597;28;20052;-79
2022/10/02 17:13:18;;;;;;;3.28;1.95;;;;;;;13.36;84.31;97050.44;5032295;28;20053;-79
2022/10/02 17:15:52;;;;;;;1.85;1.75;;;;;;;13.33;83.98;97062.06;5008049;28;20038;-79
2022/10/02 17:18:31;;;;;;;1.17;1.10;;;;;;;13.31;83.52;97064.06;5012272;28;20193;-79
2022/10/02 17:21:10;;;;;;;3.05;1.52;;;;;;;13.28;83.73;97066.22;5011606;28;20062;-79
2022/10/02 17:23:47;;;;;;;2.63;1.40;;;;;;;13.29;84.30;97067.88;5011864;28;20061;-80
2022/10/02 17:26:27;;;;;;;2.92;1.73;;;;;;;13.29;84.57;97078.34;4994721;28;20046;-79
2022/10/02 17:29:01;;;;;;;4.22;1.63;;;;;;;13.27;84.44;97080.31;5006571;28;20054;-80
2022/10/02 17:31:36;;;;;;;1.50;1.40;;;;;;;13.25;84.06;97079.69;5012012;28;20053;-79
2022/10/02 17:34:21;;;;;;;1.30;1.20;;;;;;;13.24;85.06;97083.31;5011058;28;20491;-79
2022/10/02 17:37:01;;;;;;;1.20;1.10;;;;;;;13.23;84.65;97085.13;5002428;28;20046;-79
2022/10/02 17:39:55;;;;;;;1.90;1.67;;;;;;;13.22;85.07;97091.34;4992358;28;20133;-80
2022/10/02 17:42:40;;;;;;;1.40;1.30;;;;;;;13.25;86.09;97100.66;5007983;28;20088;-79
2022/10/02 17:45:20;;;;;;;1.95;1.73;;;;;;;13.27;86.13;97103.91;5019319;28;20052;-79
2022/10/02 17:48:13;;;;;;;2.20;1.67;;;;;;;13.28;86.45;97109.00;5031029;28;20073;-79
2022/10/02 17:51:02;;;;;;;2.72;2.03;;;;;;;13.30;86.60;97114.06;5031052;28;20128;-79
2022/10/02 17:57:17;;;;;;;3.35;2.28;;;;;;;13.29;86.73;97121.06;5012919;28;20046;-79
2022/10/02 18:00:11;;;;;;;3.05;2.58;;;;;;;13.29;86.65;97125.50;5011615;28;20062;-79
2022/10/02 18:03:17;;;;;;;3.85;2.75;;;;;;;13.28;86.37;97139.59;5011787;28;20050;-79
2022/10/02 18:05:59;;;;;;;2.58;2.38;;;;;;;13.27;86.17;97153.66;5011753;28;20061;-79
2022/10/02 18:09:03;;;;;;;3.35;2.83;;;;;;;13.27;86.50;97145.81;5011848;28;20487;-79
2022/10/02 18:11:55;;;;;;;1.90;1.80;;;;;;;13.25;86.43;97151.25;4992187;28;20058;-78
2022/10/02 18:14:52;;;;;;;2.22;1.92;;;;;;;13.23;86.30;97150.63;4992321;28;20053;-80
2022/10/02 18:17:31;;;;;;;3.13;2.00;;;;;;;13.22;85.86;97153.44;4997593;28;20054;-80
2022/10/02 18:20:10;;;;;;;3.53;2.33;;;;;;;13.20;85.75;97140.50;5031167;28;20064;-79
2022/10/02 18:22:54;;;;;;;2.72;1.90;;;;;;;13.20;85.72;97140.50;5031254;28;20054;-78
2022/10/02 18:25:37;;;;;;;1.58;1.25;;;;;;;13.18;85.59;97138.09;5031379;28;20458;-79
2022/10/02 18:28:30;;;;;;;3.00;1.25;;;;;;;13.19;85.16;97144.94;5029831;28;20061;-79
2022/10/02 18:31:11;;;;;;;2.25;1.55;;;;;;;13.22;85.96;97142.94;5011307;28;20050;-78
2022/10/02 18:33:57;;;;;;;2.78;1.90;;;;;;;13.22;85.98;97130.66;4992401;28;20050;-79
2022/10/02 18:36:41;;;;;;;1.65;1.30;;;;;;;13.20;86.02;97130.81;4994847;28;20424;-79
2022/10/02 18:39:19;;;;;;;2.70;1.90;;;;;;;13.23;86.41;97134.06;4995324;28;20058;-79
2022/10/02 18:41:55;;;;;;;2.03;1.77;;;;;;;13.22;85.64;97132.47;4995474;28;20065;-78
2022/10/02 18:44:45;;;;;;;2.38;1.85;;;;;;;13.21;86.15;97134.28;4995449;28;20050;-79
2022/10/02 18:47:30;;;;;;;5.20;3.22;;;;;;;13.20;86.38;97125.59;4995850;28;20057;-79
2022/10/02 18:50:09;;;;;;;2.38;2.17;;;;;;;13.20;85.60;97122.16;5013407;28;20053;-79
2022/10/02 18:52:57;;;;;;;5.75;3.30;;;;;;;13.22;86.39;97124.59;5019735;28;20060;-79
2022/10/02 18:56:04;;;;;;;3.30;2.20;;;;;;;13.23;85.80;97134.91;5017587;28;20054;-80
2022/10/02 18:58:42;;;;;;;1.63;1.52;;;;;;;13.18;85.08;97132.84;4934951;29;20063;-80
2022/10/02 19:01:17;;;;;;;3.72;2.33;;;;;;;13.18;86.35;97151.19;4934500;29;20052;-78
2022/10/02 19:04:00;;;;;;;3.40;2.25;;;;;;;13.17;86.08;97140.88;4981568;28;20054;-78
2022/10/02 19:06:32;;;;;;;3.10;1.98;;;;;;;13.17;86.12;97140.88;5016162;28;20050;-79
2022/10/02 19:09:16;;;;;;;1.70;1.60;;;;;;;13.18;86.95;97150.34;5034129;28;20045;-78
2022/10/02 19:11:47;;;;;;;1.95;1.77;;;;;;;13.16;86.00;97140.09;5000136;28;20514;-79
2022/10/02 19:14:28;;;;;;;2.85;1.80;;;;;;;13.14;85.36;97149.94;5005338;28;20114;-79
2022/10/02 19:16:58;;;;;;;3.17;1.65;;;;;;;13.13;85.21;97153.53;5014735;28;20045;-78
2022/10/02 19:19:27;;;;;;;1.67;1.20;;;;;;;13.12;84.72;97154.53;5034104;28;20049;-79
2022/10/02 19:21:59;;;;;;;2.00;1.77;;;;;;;13.13;85.66;97150.91;5033894;28;20060;-79
2022/10/02 19:24:31;;;;;;;1.65;1.55;;;;;;;13.16;86.00;97145.31;5034180;28;20049;-78
2022/10/02 19:27:05;;;;;;;1.77;1.63;;;;;;;13.18;86.44;97152.97;5033635;28;20065;-78
2022/10/02 19:29:38;;;;;;;1.75;1.65;;;;;;;13.19;85.79;97158.03;5019802;28;20046;-79
2022/10/02 19:32:13;;;;;;;2.05;1.73;;;;;;;13.17;86.13;97167.06;5013894;28;20120;-79
2022/10/02 19:34:42;;;;;;;1.55;1.45;;;;;;;13.16;85.69;97182.00;5013873;28;20054;-78
2022/10/02 19:37:16;;;;;;;1.67;1.40;;;;;;;13.15;85.44;97190.03;5013676;28;20518;-79
2022/10/02 19:39:50;;;;;;;2.60;1.45;;;;;;;13.13;85.80;97192.81;5013861;28;20049;-79
2022/10/02 19:42:23;;;;;;;2.40;2.20;;;;;;;13.10;84.45;97203.66;5013704;28;20052;-78